CFG9HX EDDF-LGSA
Flight info
| Callsign | CFG9HX |
|---|---|
| Flight time | N/A |
| Altitude | 35000 |
| Route | CINDY8S/18 CINDY Z74 LAMPU DCT NOMBO Y161 MAH DCT VAVOR DCT RADIZ DCT PENEP DCT DARZA DCT DEPET DCT UNIPA DCT VAKSU DCT RODON DCT DIMIS DCT IPTES UL604 TRL UL612 MANOK L612 RUSOS |
| Aircraft | A320/M-SDE3FGHIRWY/LB1 |
Departure
| Time | 2026-05-07 15:35 |
|---|---|
| Airport | Frankfurt Main Airport (EDDF) |
Arrival
| Time | N/A |
|---|---|
| Airport | Chania International Airport (LGSA) |
| Time | Latitude | Longitude | Altitude | Speed | Heading |
|---|---|---|---|---|---|
| 2026-05-07 15:16 | 50.04057 | 8.55693 | 351 ft | 0 kts | 160° |
| 2026-05-07 15:29 | 50.04056 | 8.55694 | 351 ft | 1 kts | 160° |
| 2026-05-07 15:30 | 50.04054 | 8.55695 | 351 ft | 2 kts | 160° |
| 2026-05-07 15:30 | 50.03981 | 8.55659 | 350 ft | 15 kts | 234° |
| 2026-05-07 15:30 | 50.03942 | 8.55505 | 349 ft | 15 kts | 250° |
| 2026-05-07 15:30 | 50.03918 | 8.55401 | 351 ft | 16 kts | 249° |
| 2026-05-07 15:31 | 50.03881 | 8.55248 | 353 ft | 17 kts | 249° |
| 2026-05-07 15:31 | 50.03837 | 8.55065 | 348 ft | 19 kts | 250° |
| 2026-05-07 15:31 | 50.03790 | 8.54870 | 353 ft | 20 kts | 250° |
| 2026-05-07 15:31 | 50.03739 | 8.54656 | 347 ft | 23 kts | 250° |
| 2026-05-07 15:32 | 50.03675 | 8.54390 | 350 ft | 28 kts | 249° |
| 2026-05-07 15:32 | 50.03610 | 8.54117 | 347 ft | 26 kts | 250° |
| 2026-05-07 15:32 | 50.03546 | 8.53851 | 337 ft | 26 kts | 249° |
| 2026-05-07 15:32 | 50.03482 | 8.53580 | 338 ft | 27 kts | 250° |
| 2026-05-07 15:33 | 50.03417 | 8.53307 | 336 ft | 27 kts | 249° |
| 2026-05-07 15:33 | 50.03350 | 8.53031 | 334 ft | 27 kts | 249° |
| 2026-05-07 15:33 | 50.03287 | 8.52767 | 332 ft | 23 kts | 250° |
| 2026-05-07 15:33 | 50.03186 | 8.52603 | 334 ft | 22 kts | 196° |
| 2026-05-07 15:34 | 50.02924 | 8.52598 | 334 ft | 68 kts | 180° |
| 2026-05-07 15:34 | 50.02235 | 8.52604 | 335 ft | 128 kts | 180° |
| 2026-05-07 15:34 | 50.01175 | 8.52617 | 339 ft | 173 kts | 180° |
| 2026-05-07 15:34 | 49.99988 | 8.52644 | 953 ft | 170 kts | 181° |
| 2026-05-07 15:35 | 49.98789 | 8.52654 | 1567 ft | 176 kts | 179° |
| 2026-05-07 15:35 | 49.97547 | 8.52670 | 2190 ft | 181 kts | 177° |
| 2026-05-07 15:35 | 49.96306 | 8.53276 | 2553 ft | 199 kts | 140° |
| 2026-05-07 15:35 | 49.95440 | 8.55061 | 2863 ft | 219 kts | 114° |
| 2026-05-07 15:36 | 49.94770 | 8.57299 | 3381 ft | 233 kts | 115° |
| 2026-05-07 15:36 | 49.94150 | 8.59643 | 4144 ft | 237 kts | 102° |
| 2026-05-07 15:36 | 49.93962 | 8.62261 | 4586 ft | 255 kts | 90° |
| 2026-05-07 15:36 | 49.93890 | 8.65079 | 5058 ft | 271 kts | 92° |
| 2026-05-07 15:37 | 49.93520 | 8.67971 | 5779 ft | 277 kts | 111° |
| 2026-05-07 15:37 | 49.92536 | 8.70562 | 6557 ft | 281 kts | 131° |
| 2026-05-07 15:37 | 49.91224 | 8.72356 | 7222 ft | 283 kts | 146° |